Time;durP1;ratioP1;P1;durP2;ratioP2;P2;SDS_P1;SDS_P2;PMS_P1;PMS_P2;Temp;Humidity;BMP_temperature;BMP_pressure;BME280_temperature;BME280_humidity;BME280_pressure;Samples;Min_cycle;Max_cycle;Signal;HPM_P1;HPM_P2
2021/04/17 00:02:11;;;;;;;24.52;13.13;;;;;;;9.55;56.71;97261.34;5025708;28;20083;-62
2021/04/17 00:04:38;;;;;;;19.63;9.80;;;;;;;9.55;57.29;97263.31;5011875;28;20121;-64
2021/04/17 00:07:09;;;;;;;17.95;10.38;;;;;;;9.23;58.56;97268.06;5026455;28;20415;-63
2021/04/17 00:09:35;;;;;;;16.23;8.68;;;;;;;9.33;57.90;97261.97;5027277;28;20026;-62
2021/04/17 00:12:05;;;;;;;9.13;6.07;;;;;;;9.17;57.73;97269.44;5026916;28;20037;-62
2021/04/17 00:14:34;;;;;;;31.73;15.63;;;;;;;8.46;58.00;97149.97;5027064;28;20049;-63
2021/04/17 00:17:01;;;;;;;64.68;23.20;;;;;;;8.94;58.67;97260.16;5027398;28;20044;-62
2021/04/17 00:19:26;;;;;;;9.60;4.90;;;;;;;9.00;59.51;97264.28;5027641;28;20536;-62
2021/04/17 00:21:52;;;;;;;9.65;4.85;;;;;;;8.74;60.18;97239.91;5026102;28;20048;-64
2021/04/17 00:24:17;;;;;;;6.75;4.38;;;;;;;8.68;59.24;97226.69;5025076;28;20041;-63
2021/04/17 00:26:43;;;;;;;8.68;4.80;;;;;;;8.94;58.31;97255.44;5026352;28;20120;-63
2021/04/17 00:29:09;;;;;;;7.70;4.78;;;;;;;8.91;56.61;97266.41;5024829;28;20565;-63
2021/04/17 00:31:36;;;;;;;8.68;4.70;;;;;;;8.73;56.66;97221.72;5024658;28;20037;-63
2021/04/17 00:34:03;;;;;;;6.53;4.97;;;;;;;8.71;56.58;97245.34;5025082;28;20124;-63
2021/04/17 00:36:29;;;;;;;10.48;6.15;;;;;;;9.03;56.84;97258.03;5026059;28;20041;-63
2021/04/17 00:38:57;;;;;;;12.35;5.93;;;;;;;9.05;57.16;97280.59;5026621;28;20029;-61
2021/04/17 00:41:22;;;;;;;7.53;5.57;;;;;;;8.89;57.37;97218.97;5025889;28;20538;-61
2021/04/17 00:43:48;;;;;;;8.60;5.63;;;;;;;8.81;57.59;97217.19;5026196;28;20053;-62
2021/04/17 00:46:14;;;;;;;9.30;5.88;;;;;;;9.11;56.77;97257.06;5024264;28;20044;-61
2021/04/17 00:48:40;;;;;;;14.18;8.48;;;;;;;9.13;57.37;97246.47;5016220;28;20091;-61
2021/04/17 00:51:07;;;;;;;14.73;7.57;;;;;;;9.27;57.30;97244.06;5006190;28;20049;-61
2021/04/17 00:53:32;;;;;;;20.70;9.00;;;;;;;9.35;57.00;97243.06;5006607;28;20029;-62
2021/04/17 00:55:58;;;;;;;18.00;8.02;;;;;;;9.43;56.17;97239.31;5021075;28;20513;-62
2021/04/17 00:58:24;;;;;;;18.70;9.95;;;;;;;9.45;56.55;97236.19;5006384;28;20476;-64
2021/04/17 01:00:49;;;;;;;17.73;9.38;;;;;;;9.39;57.11;97229.34;5005763;28;20100;-62
2021/04/17 01:03:23;;;;;;;23.73;11.82;;;;;;;9.33;56.60;97234.31;5006227;28;20064;-61
2021/04/17 01:05:50;;;;;;;;;;;;;;;9.32;57.73;97232.72;5006204;28;20064;-62
2021/04/17 01:08:27;;;;;;;21.80;9.82;;;;;;;9.31;58.50;97231.09;5021117;28;19940;-61
2021/04/17 01:10:58;;;;;;;21.98;9.93;;;;;;;9.36;57.39;97222.56;5005855;28;20042;-62
2021/04/17 01:13:24;;;;;;;12.90;7.93;;;;;;;8.88;57.78;97173.19;5006343;28;20555;-62
2021/04/17 01:15:50;;;;;;;16.48;8.93;;;;;;;9.27;58.59;97215.59;5006283;28;20612;-62
2021/04/17 01:18:16;;;;;;;22.35;11.32;;;;;;;9.24;58.97;97219.91;5006479;28;20105;-63
2021/04/17 01:20:49;;;;;;;22.75;12.57;;;;;;;8.87;59.74;97169.63;5005912;28;20080;-62
2021/04/17 01:23:23;;;;;;;129.52;46.45;;;;;;;9.28;60.19;97220.75;5004232;28;20418;-61
2021/04/17 01:25:57;;;;;;;26.67;11.82;;;;;;;9.23;59.58;97200.91;5005405;28;20044;-64
2021/04/17 01:28:23;;;;;;;;;;;;;;;9.23;59.97;97211.97;5006108;28;20080;-63
2021/04/17 01:30:50;;;;;;;26.15;13.55;;;;;;;8.94;61.18;97210.44;5005460;28;19925;-62
2021/04/17 01:33:18;;;;;;;26.27;14.30;;;;;;;9.05;62.10;97211.50;5020736;28;20030;-62
2021/04/17 01:35:47;;;;;;;24.98;11.57;;;;;;;8.34;62.95;97092.09;5020477;28;20065;-62
2021/04/17 01:38:24;;;;;;;17.88;11.00;;;;;;;9.16;62.46;97215.34;5005882;28;20587;-61
2021/04/17 01:40:55;;;;;;;16.20;10.30;;;;;;;8.60;63.21;97133.81;5005064;28;20489;-62
2021/04/17 01:43:24;;;;;;;10.50;6.63;;;;;;;9.03;62.63;97213.81;5005284;28;20160;-62
2021/04/17 01:45:51;;;;;;;6.93;5.72;;;;;;;9.00;63.75;97215.34;5005000;28;20034;-62
2021/04/17 01:48:18;;;;;;;12.20;7.38;;;;;;;8.94;65.38;97224.25;5011735;28;20385;-64
2021/04/17 01:50:46;;;;;;;20.05;11.50;;;;;;;8.78;67.26;97226.19;5024707;28;20048;-63
2021/04/17 01:53:16;;;;;;;9.82;7.45;;;;;;;8.43;66.52;97142.41;5023403;28;20045;-62
2021/04/17 01:55:42;;;;;;;8.80;6.25;;;;;;;8.81;66.83;97206.16;5024427;28;20046;-62
2021/04/17 01:58:09;;;;;;;7.65;5.72;;;;;;;8.15;65.79;97116.78;5025281;28;20026;-63
2021/04/17 02:00:35;;;;;;;8.52;6.20;;;;;;;8.79;65.76;97197.41;5024524;28;20073;-64
2021/04/17 02:03:01;;;;;;;7.93;6.07;;;;;;;8.36;67.51;97139.47;5024920;28;20524;-65
2021/04/17 02:05:27;;;;;;;10.63;5.38;;;;;;;8.70;67.47;97188.50;5022837;28;20046;-63
2021/04/17 02:07:57;;;;;;;9.65;6.20;;;;;;;8.67;66.49;97194.72;5023214;28;20060;-62
2021/04/17 02:10:22;;;;;;;11.63;5.88;;;;;;;8.49;67.46;97171.34;5022448;28;20064;-64
2021/04/17 02:12:47;;;;;;;10.07;6.30;;;;;;;8.56;69.18;97204.69;5024835;28;20428;-62
2021/04/17 02:15:14;;;;;;;10.13;6.75;;;;;;;8.16;69.36;97138.50;5024640;28;20060;-61
2021/04/17 02:17:51;;;;;;;9.68;6.78;;;;;;;8.62;70.82;97208.78;5024911;28;20029;-63
2021/04/17 02:20:33;;;;;;;10.55;6.60;;;;;;;8.65;70.46;97202.56;5024595;28;20033;-62
2021/04/17 02:22:58;;;;;;;10.57;6.43;;;;;;;8.60;70.44;97228.47;5024034;28;20424;-62
2021/04/17 02:25:24;;;;;;;9.75;6.45;;;;;;;8.56;69.18;97193.63;5024041;28;20037;-65
2021/04/17 02:27:50;;;;;;;9.13;6.35;;;;;;;7.56;68.33;97029.28;5024551;28;20532;-63
2021/04/17 02:30:16;;;;;;;16.73;7.93;;;;;;;8.67;70.72;97211.28;5022497;28;20040;-61
2021/04/17 02:32:42;;;;;;;13.38;9.07;;;;;;;8.19;71.05;97161.84;5022812;28;20029;-62
2021/04/17 02:35:08;;;;;;;12.07;8.40;;;;;;;8.40;72.71;97184.53;5022495;28;20510;-64
2021/04/17 02:37:33;;;;;;;13.18;8.43;;;;;;;8.51;71.16;97218.72;5024995;28;20102;-63
2021/04/17 02:39:59;;;;;;;9.70;7.53;;;;;;;8.52;71.66;97220.34;5024215;28;20033;-63
2021/04/17 02:42:24;;;;;;;11.57;8.40;;;;;;;8.10;71.99;97153.72;5021970;28;20037;-62
2021/04/17 02:44:50;;;;;;;11.25;8.48;;;;;;;8.58;71.75;97230.00;5023833;28;20029;-65
2021/04/17 02:47:17;;;;;;;9.70;6.90;;;;;;;7.92;71.19;97146.09;5022231;28;20151;-62
2021/04/17 02:49:42;;;;;;;10.85;7.20;;;;;;;8.14;71.88;97164.84;5006300;28;20517;-64
2021/04/17 02:52:08;;;;;;;13.40;8.38;;;;;;;8.16;74.04;97166.09;5018741;28;20037;-65
2021/04/17 02:54:33;;;;;;;13.02;8.30;;;;;;;8.53;73.77;97231.06;5004319;28;20477;-64
2021/04/17 02:56:59;;;;;;;12.73;8.77;;;;;;;8.57;72.97;97234.69;5002763;28;20425;-64
2021/04/17 02:59:24;;;;;;;11.75;7.90;;;;;;;8.44;72.77;97218.56;5004296;28;20033;-64
2021/04/17 03:01:50;;;;;;;21.08;13.35;;;;;;;8.51;72.47;97218.72;5003584;28;20476;-65
2021/04/17 03:04:15;;;;;;;19.02;11.68;;;;;;;8.46;72.58;97217.03;5019063;28;20060;-62
2021/04/17 03:06:41;;;;;;;14.60;9.02;;;;;;;7.91;73.49;97133.44;5002009;28;20045;-64
2021/04/17 03:09:06;;;;;;;17.77;11.00;;;;;;;8.38;72.50;97225.47;5003803;28;20097;-64
2021/04/17 03:11:32;;;;;;;13.23;8.52;;;;;;;7.33;73.30;97140.38;5003527;28;20045;-64
2021/04/17 03:13:58;;;;;;;12.75;7.70;;;;;;;7.96;74.04;97273.84;5004197;28;20466;-63
2021/04/17 03:16:24;;;;;;;12.75;8.07;;;;;;;7.99;73.28;97229.84;5003852;28;20064;-65
2021/04/17 03:18:49;;;;;;;8.88;6.38;;;;;;;7.61;73.93;97222.00;5004203;28;20034;-64
2021/04/17 03:21:15;;;;;;;13.30;8.60;;;;;;;7.22;77.43;97161.28;5003823;28;20619;-63
2021/04/17 03:23:40;;;;;;;12.00;8.00;;;;;;;6.74;78.02;97095.22;5004081;28;20030;-62
2021/04/17 03:26:06;;;;;;;12.77;8.25;;;;;;;6.85;81.26;97121.94;5003627;28;20108;-61
2021/04/17 03:28:31;;;;;;;9.93;8.20;;;;;;;6.10;81.79;96998.81;5019635;28;20033;-64
2021/04/17 03:30:57;;;;;;;11.55;8.15;;;;;;;7.49;82.68;97216.47;5003704;28;20033;-63
2021/04/17 03:33:23;;;;;;;11.38;8.75;;;;;;;6.93;83.44;97122.97;5004284;28;20036;-65
2021/04/17 03:35:48;;;;;;;13.20;8.48;;;;;;;7.47;83.96;97218.78;5006818;28;20045;-63
2021/04/17 03:38:13;;;;;;;12.32;8.48;;;;;;;7.14;83.32;97171.28;5007670;28;20030;-65
2021/04/17 03:40:39;;;;;;;12.68;8.38;;;;;;;6.80;83.28;97116.66;5007293;28;20034;-62
2021/04/17 03:43:05;;;;;;;15.10;8.90;;;;;;;7.38;83.08;97226.34;5007729;28;20056;-63
2021/04/17 03:45:31;;;;;;;11.93;8.68;;;;;;;7.37;82.50;97230.28;5022125;28;20038;-65
2021/04/17 03:47:56;;;;;;;10.35;7.95;;;;;;;6.83;82.93;97162.00;5010083;28;20496;-62
2021/04/17 03:50:22;;;;;;;11.48;8.32;;;;;;;7.17;82.24;97225.69;5026509;28;20056;-62
2021/04/17 03:52:48;;;;;;;12.95;8.60;;;;;;;7.14;82.60;97233.84;5027337;28;20087;-63
2021/04/17 03:55:16;;;;;;;13.98;9.15;;;;;;;7.24;82.45;97247.94;5026478;28;20041;-63
2021/04/17 03:57:43;;;;;;;13.18;9.85;;;;;;;7.36;80.42;97244.41;5027366;28;20033;-63
2021/04/17 04:00:17;;;;;;;17.27;10.95;;;;;;;7.47;80.57;97235.34;5025696;28;20440;-63
2021/04/17 04:02:42;;;;;;;15.18;9.32;;;;;;;7.36;80.21;97208.56;5027082;28;20022;-62
2021/04/17 04:05:09;;;;;;;11.82;9.13;;;;;;;7.59;78.98;97229.78;5026950;28;20040;-62
2021/04/17 04:07:34;;;;;;;14.48;8.88;;;;;;;7.54;81.03;97241.06;5026732;28;20072;-61
2021/04/17 04:10:00;;;;;;;15.52;10.27;;;;;;;7.04;81.10;97159.91;5026602;28;20527;-61
2021/04/17 04:12:25;;;;;;;26.35;12.90;;;;;;;6.87;80.76;97138.94;5026771;28;20027;-62
2021/04/17 04:14:51;;;;;;;18.65;10.25;;;;;;;7.36;82.39;97217.66;5027109;28;20084;-62
2021/04/17 04:17:16;;;;;;;17.20;11.20;;;;;;;7.51;83.59;97241.75;5026581;28;20116;-63
2021/04/17 04:19:41;;;;;;;21.90;11.93;;;;;;;6.97;84.59;97132.94;5026807;28;20028;-62
2021/04/17 04:22:07;;;;;;;17.58;11.85;;;;;;;7.62;84.24;97231.84;5026262;28;20045;-62
2021/04/17 04:24:32;;;;;;;15.57;10.38;;;;;;;7.49;83.77;97235.00;5024921;28;20037;-63
2021/04/17 04:26:58;;;;;;;20.67;13.50;;;;;;;7.60;84.31;97238.88;5026691;28;20048;-62
2021/04/17 04:29:23;;;;;;;29.75;17.50;;;;;;;7.63;83.80;97244.47;5026849;28;20038;-63
2021/04/17 04:31:49;;;;;;;33.88;19.92;;;;;;;7.72;84.40;97247.13;5026443;28;20038;-63
2021/04/17 04:34:14;;;;;;;31.17;18.63;;;;;;;6.70;85.87;97088.81;5025391;28;20030;-64
2021/04/17 04:36:40;;;;;;;41.60;24.73;;;;;;;7.82;88.08;97237.56;5026343;28;20127;-62
2021/04/17 04:39:07;;;;;;;38.03;22.83;;;;;;;7.92;88.69;97261.94;5026292;28;20033;-63
2021/04/17 04:41:35;;;;;;;37.75;24.48;;;;;;;7.58;86.22;97186.84;5024413;28;20149;-63
2021/04/17 04:44:00;;;;;;;31.10;21.30;;;;;;;7.67;87.03;97194.97;5026435;28;20503;-62
2021/04/17 04:46:25;;;;;;;35.92;22.77;;;;;;;7.63;87.89;97196.84;5024042;28;20037;-63
2021/04/17 04:48:51;;;;;;;33.40;22.58;;;;;;;8.05;88.75;97249.69;5031876;28;20029;-62
2021/04/17 04:51:16;;;;;;;33.97;20.52;;;;;;;8.05;88.52;97266.25;5026173;28;20044;-64
2021/04/17 04:53:42;;;;;;;33.00;21.50;;;;;;;8.14;87.05;97248.41;5026128;28;20580;-62
2021/04/17 04:56:07;;;;;;;57.97;35.25;;;;;;;8.22;87.06;97238.41;5025449;28;20045;-62
2021/04/17 04:58:32;;;;;;;46.72;29.77;;;;;;;8.25;87.62;97238.50;5026138;28;20488;-61
2021/04/17 05:00:58;;;;;;;44.40;26.90;;;;;;;8.27;88.78;97246.44;5023785;28;20038;-65
2021/04/17 05:03:23;;;;;;;43.42;25.83;;;;;;;8.31;88.21;97241.84;5025906;28;20753;-64
2021/04/17 05:05:49;;;;;;;38.50;24.55;;;;;;;8.30;87.69;97246.53;5040430;28;20060;-63
2021/04/17 05:08:14;;;;;;;35.00;23.52;;;;;;;8.01;87.76;97185.34;5041399;28;20029;-63
2021/04/17 05:10:40;;;;;;;43.47;26.85;;;;;;;8.41;87.85;97253.16;5025220;28;20497;-63
2021/04/17 05:13:05;;;;;;;83.93;41.08;;;;;;;8.40;86.23;97253.53;5025527;28;20033;-63
2021/04/17 05:15:31;;;;;;;71.53;36.38;;;;;;;8.28;85.01;97225.97;5025191;28;20042;-63
2021/04/17 05:17:56;;;;;;;66.90;35.28;;;;;;;8.08;86.41;97226.94;5025431;28;20041;-62
2021/04/17 05:20:22;;;;;;;45.28;26.60;;;;;;;7.85;84.46;97188.06;5025289;28;20045;-62
2021/04/17 05:22:47;;;;;;;49.05;27.17;;;;;;;8.29;84.89;97260.69;5025431;28;20029;-62
2021/04/17 05:25:13;;;;;;;36.22;21.45;;;;;;;8.37;83.04;97254.22;5024976;28;20060;-63
2021/04/17 05:27:38;;;;;;;26.58;17.17;;;;;;;8.36;80.00;97266.44;5025654;28;20080;-64
2021/04/17 05:30:05;;;;;;;39.47;23.95;;;;;;;8.29;80.11;97274.50;5040384;28;20033;-63
2021/04/17 05:32:30;;;;;;;28.63;16.63;;;;;;;8.32;80.95;97265.50;5025349;28;20029;-63
2021/04/17 05:34:56;;;;;;;24.10;14.55;;;;;;;7.90;78.93;97203.53;5025347;28;20511;-63
2021/04/17 05:37:21;;;;;;;23.35;15.52;;;;;;;8.26;78.47;97266.91;5023021;28;20041;-63
2021/04/17 05:39:47;;;;;;;23.20;14.68;;;;;;;8.01;79.27;97243.28;5040115;28;20383;-64
2021/04/17 05:42:12;;;;;;;19.88;13.57;;;;;;;8.04;79.13;97264.66;5024567;28;20044;-64
2021/04/17 05:44:38;;;;;;;23.70;14.00;;;;;;;7.40;80.55;97152.44;5025102;28;20487;-63
2021/04/17 05:47:03;;;;;;;19.70;12.93;;;;;;;7.81;78.51;97219.44;5024803;28;20076;-64
2021/04/17 05:49:29;;;;;;;22.15;14.27;;;;;;;7.05;80.33;97079.69;5020271;28;20030;-65
2021/04/17 05:51:54;;;;;;;29.77;20.20;;;;;;;7.74;79.84;97173.94;5004512;28;20042;-64
2021/04/17 05:54:20;;;;;;;24.33;15.65;;;;;;;8.38;78.35;97245.59;5005239;28;20453;-64
2021/04/17 05:56:45;;;;;;;23.40;15.95;;;;;;;8.26;79.67;97248.41;5018848;28;20440;-64
2021/04/17 05:59:11;;;;;;;21.02;14.10;;;;;;;8.36;77.73;97247.09;5005119;28;20550;-64
2021/04/17 06:01:36;;;;;;;28.02;19.33;;;;;;;8.47;77.16;97250.97;5004380;28;20045;-64
2021/04/17 06:04:02;;;;;;;34.92;21.17;;;;;;;7.31;82.24;97099.41;5019736;28;20061;-64
2021/04/17 06:06:27;;;;;;;33.75;21.20;;;;;;;8.60;83.80;97244.25;5019782;28;20175;-64
2021/04/17 06:08:53;;;;;;;39.20;26.83;;;;;;;8.28;85.60;97199.19;5005122;28;20057;-64
2021/04/17 06:11:19;;;;;;;42.47;24.00;;;;;;;8.61;85.46;97215.47;5004424;28;20034;-64
2021/04/17 06:13:44;;;;;;;33.50;18.95;;;;;;;8.43;83.42;97183.81;5019474;28;20040;-63
2021/04/17 06:16:10;;;;;;;21.80;14.95;;;;;;;6.93;80.70;96955.81;5004079;28;20118;-63
2021/04/17 06:18:36;;;;;;;22.27;15.98;;;;;;;8.70;81.44;97232.69;5004825;28;20152;-65
2021/04/17 06:21:02;;;;;;;23.65;16.73;;;;;;;7.98;82.65;97117.09;5004573;28;20037;-64
2021/04/17 06:23:28;;;;;;;42.50;24.23;;;;;;;8.65;82.19;97213.59;5019564;28;20033;-64
2021/04/17 06:25:53;;;;;;;43.75;22.42;;;;;;;8.47;80.53;97228.88;5004420;28;20034;-64
2021/04/17 06:28:20;;;;;;;27.40;16.50;;;;;;;8.46;78.15;97205.19;5004686;28;20050;-65
2021/04/17 06:30:46;;;;;;;25.02;13.68;;;;;;;8.23;75.81;97146.19;5018996;28;20030;-66
2021/04/17 06:33:12;;;;;;;22.98;14.80;;;;;;;8.69;77.01;97220.03;5004633;28;20573;-63
2021/04/17 06:35:39;;;;;;;24.05;15.43;;;;;;;8.73;76.36;97226.44;5003919;28;20034;-63
2021/04/17 06:38:09;;;;;;;22.13;14.57;;;;;;;8.76;76.70;97222.97;5021731;28;20034;-63
2021/04/17 06:40:36;;;;;;;19.10;13.43;;;;;;;8.60;74.82;97214.66;5017593;28;20038;-67
2021/04/17 06:43:04;;;;;;;19.63;11.23;;;;;;;7.28;73.89;97002.88;5006099;28;20049;-63
2021/04/17 06:45:34;;;;;;;16.20;10.68;;;;;;;8.79;72.94;97216.72;5015580;28;20029;-66
2021/04/17 06:48:04;;;;;;;28.63;21.02;;;;;;;8.33;70.00;97120.88;5021680;28;20048;-64
2021/04/17 06:50:32;;;;;;;18.50;13.15;;;;;;;8.53;69.88;97128.09;5037366;28;20037;-60
2021/04/17 06:53:02;;;;;;;23.52;15.95;;;;;;;7.32;70.88;96930.19;5022914;28;20592;-59
2021/04/17 06:55:27;;;;;;;19.02;12.35;;;;;;;9.21;71.02;97215.09;5022458;28;20181;-61
2021/04/17 06:57:53;;;;;;;12.25;9.65;;;;;;;5.99;68.66;96676.78;5022940;28;20444;-60
2021/04/17 07:00:22;;;;;;;15.55;11.55;;;;;;;9.37;69.10;97210.34;5023037;28;20068;-60
2021/04/17 07:02:47;;;;;;;20.23;12.77;;;;;;;9.39;70.90;97208.00;5021925;28;20076;-60
2021/04/17 07:05:13;;;;;;;18.30;14.80;;;;;;;9.46;69.54;97210.94;5038079;28;20044;-66
2021/04/17 07:07:39;;;;;;;22.15;13.30;;;;;;;9.57;69.08;97205.66;5023371;28;20033;-65
2021/04/17 07:10:05;;;;;;;22.88;14.30;;;;;;;9.43;70.32;97175.72;5023757;28;20116;-66
2021/04/17 07:12:31;;;;;;;24.50;15.32;;;;;;;9.12;69.17;97123.25;5021849;28;20095;-60
2021/04/17 07:14:56;;;;;;;23.08;14.75;;;;;;;9.22;68.92;97189.03;5023448;28;20519;-64
2021/04/17 07:17:22;;;;;;;25.83;17.73;;;;;;;9.66;70.59;97212.59;5021909;28;20038;-61
2021/04/17 07:20:01;;;;;;;37.58;18.38;;;;;;;9.33;71.66;97151.41;5022665;28;20029;-61
2021/04/17 07:22:39;;;;;;;23.20;16.23;;;;;;;7.42;71.04;96841.50;5036689;28;20420;-62
2021/04/17 07:25:04;;;;;;;23.38;16.75;;;;;;;9.83;69.75;97208.66;5022929;28;20500;-65
2021/04/17 07:27:40;;;;;;;26.13;17.23;;;;;;;9.50;71.06;97162.06;5020890;28;20044;-65
2021/04/17 07:30:27;;;;;;;24.10;16.65;;;;;;;9.74;71.24;97183.94;5022606;28;20040;-66
2021/04/17 07:33:16;;;;;;;27.92;15.23;;;;;;;10.01;69.89;97216.16;5020892;28;20517;-63
2021/04/17 07:35:53;;;;;;;50.00;28.13;;;;;;;10.06;70.18;97210.34;5021329;28;20051;-72
2021/04/17 07:38:41;;;;;;;21.05;13.65;;;;;;;9.92;70.91;97212.81;5022996;28;20045;-65
2021/04/17 07:41:15;;;;;;;405.75;208.05;;;;;;;9.98;72.29;97214.13;5020071;28;20142;-62
2021/04/17 07:44:02;;;;;;;33.40;17.92;;;;;;;9.35;71.99;97110.38;5022932;28;20652;-63
2021/04/17 07:46:40;;;;;;;21.13;14.43;;;;;;;9.24;71.05;97109.34;5022223;28;20040;-63
2021/04/17 07:49:14;;;;;;;20.20;15.13;;;;;;;8.65;70.79;97025.84;5017562;28;20029;-65
2021/04/17 07:51:56;;;;;;;21.92;14.07;;;;;;;9.75;74.21;97213.22;5022841;28;20041;-61
2021/04/17 07:54:22;;;;;;;41.10;27.50;;;;;;;9.36;73.76;97172.78;5022163;28;20038;-61
2021/04/17 07:56:47;;;;;;;18.33;12.93;;;;;;;9.07;71.75;97126.31;5020545;28;20036;-63
2021/04/17 07:59:13;;;;;;;18.48;13.50;;;;;;;7.73;75.21;97075.03;5021159;28;20103;-66
2021/04/17 08:01:42;;;;;;;22.33;13.30;;;;;;;8.78;74.28;97168.19;5017895;28;20488;-64
2021/04/17 08:04:08;;;;;;;21.98;12.50;;;;;;;9.36;72.36;97217.03;5022049;28;20048;-65
2021/04/17 08:06:35;;;;;;;15.73;11.68;;;;;;;9.40;73.08;97206.06;5023157;28;20615;-64
2021/04/17 08:09:02;;;;;;;16.48;12.02;;;;;;;9.40;71.92;97212.41;5023133;28;20427;-70
2021/04/17 08:11:29;;;;;;;17.08;11.98;;;;;;;9.38;72.96;97195.34;5009224;28;20049;-72
2021/04/17 08:13:56;;;;;;;21.20;13.70;;;;;;;8.95;72.91;97200.97;5015397;28;20041;-71
2021/04/17 08:16:21;;;;;;;15.63;11.20;;;;;;;8.79;75.19;97203.75;5022634;28;20040;-72
2021/04/17 08:18:47;;;;;;;16.33;11.40;;;;;;;8.46;77.08;97183.91;5021665;28;20042;-72
2021/04/17 08:21:17;;;;;;;21.65;13.85;;;;;;;7.95;76.67;97073.69;5025153;28;20041;-70
2021/04/17 08:23:46;;;;;;;15.77;12.20;;;;;;;8.56;76.17;97110.81;5027320;28;20041;-74
2021/04/17 08:26:12;;;;;;;17.08;13.20;;;;;;;8.69;74.52;97115.09;5024438;28;20631;-73
2021/04/17 08:28:43;;;;;;;15.43;12.20;;;;;;;9.20;74.23;97174.75;5026723;28;20516;-70
2021/04/17 08:31:38;;;;;;;19.83;12.80;;;;;;;9.17;73.98;97153.38;5025935;28;20425;-72
2021/04/17 08:34:21;;;;;;;13.60;11.40;;;;;;;9.52;72.20;97184.63;5026851;28;20120;-72
2021/04/17 08:36:49;;;;;;;19.55;11.80;;;;;;;9.68;71.82;97179.88;5024494;28;20044;-70
2021/04/17 08:39:33;;;;;;;16.42;11.63;;;;;;;9.76;71.55;97176.09;5026681;28;20084;-72
2021/04/17 08:41:59;;;;;;;18.58;10.93;;;;;;;9.80;71.00;97167.88;5026489;28;20037;-71
2021/04/17 08:44:33;;;;;;;14.02;10.43;;;;;;;9.27;72.08;97169.41;5026213;28;20462;-70
2021/04/17 08:47:04;;;;;;;17.00;11.57;;;;;;;9.21;73.28;97166.13;5025971;28;20136;-71
2021/04/17 08:49:32;;;;;;;20.85;13.50;;;;;;;9.47;73.99;97156.47;5026182;28;20029;-71
2021/04/17 08:52:19;;;;;;;19.48;12.75;;;;;;;9.81;71.85;97159.22;5025823;28;20113;-70
2021/04/17 08:54:59;;;;;;;16.00;11.35;;;;;;;9.83;71.95;97161.63;5026039;28;20204;-73
2021/04/17 08:57:25;;;;;;;19.58;12.10;;;;;;;9.26;72.82;97173.34;5025670;28;20530;-71
2021/04/17 08:59:56;;;;;;;16.05;11.82;;;;;;;8.58;71.06;97017.41;5026111;28;20626;-73
2021/04/17 09:02:23;;;;;;;16.88;13.50;;;;;;;9.72;72.00;97155.84;5025958;28;20037;-72
2021/04/17 09:05:01;;;;;;;18.05;12.18;;;;;;;9.87;71.00;97155.00;5026080;28;20428;-71
2021/04/17 09:07:29;;;;;;;17.98;12.18;;;;;;;10.01;69.95;97154.47;5026030;28;20128;-72
2021/04/17 09:09:55;;;;;;;17.05;12.43;;;;;;;10.03;70.10;97150.19;5026022;28;20043;-72
2021/04/17 09:12:22;;;;;;;18.85;12.60;;;;;;;10.01;69.57;97147.00;5023613;28;20037;-72
2021/04/17 09:14:50;;;;;;;16.45;11.18;;;;;;;9.53;69.58;97094.97;5024158;28;20421;-71
2021/04/17 09:17:31;;;;;;;21.20;11.73;;;;;;;9.95;69.62;97145.69;5023925;28;20651;-70
2021/04/17 09:19:57;;;;;;;15.13;10.70;;;;;;;9.84;69.51;97144.66;5025973;28;20513;-72
2021/04/17 09:22:31;;;;;;;15.23;11.35;;;;;;;9.86;69.02;97142.34;5025411;28;20088;-71
2021/04/17 09:25:07;;;;;;;17.55;11.77;;;;;;;9.83;69.79;97136.72;5025305;28;20120;-72
2021/04/17 09:27:39;;;;;;;19.25;12.35;;;;;;;9.23;70.00;97049.72;5025534;28;20045;-72
2021/04/17 09:30:13;;;;;;;17.23;13.25;;;;;;;9.36;70.08;97045.63;5025403;28;20103;-71
2021/04/17 09:32:41;;;;;;;16.17;12.60;;;;;;;10.01;69.19;97132.34;5024414;28;20131;-70
2021/04/17 09:35:23;;;;;;;21.00;12.98;;;;;;;10.00;69.47;97131.56;5025869;28;20037;-71
2021/04/17 09:38:10;;;;;;;23.35;13.10;;;;;;;10.25;68.50;97127.34;5025815;28;20120;-71
2021/04/17 09:40:45;;;;;;;19.77;13.00;;;;;;;10.16;69.74;97135.06;5039598;28;20132;-71
2021/04/17 09:43:22;;;;;;;19.45;13.70;;;;;;;5.70;70.28;96442.75;5023932;28;20558;-72
2021/04/17 09:45:50;;;;;;;20.25;13.93;;;;;;;10.13;69.75;97112.88;5023213;28;20140;-73
2021/04/17 09:48:15;;;;;;;20.45;13.88;;;;;;;9.89;69.48;97113.13;5025374;28;20151;-72
2021/04/17 09:50:41;;;;;;;17.75;13.40;;;;;;;10.02;69.89;97120.91;5036845;28;20650;-71
2021/04/17 09:53:17;;;;;;;21.60;14.48;;;;;;;9.64;71.99;97118.13;5024873;28;20041;-69
2021/04/17 09:55:49;;;;;;;22.67;16.23;;;;;;;9.15;71.33;97072.81;5024559;28;20049;-70
2021/04/17 09:58:22;;;;;;;22.73;15.52;;;;;;;10.17;72.62;97119.25;5040114;28;20643;-72
2021/04/17 10:00:49;;;;;;;22.60;14.32;;;;;;;9.85;71.50;97107.50;5039451;28;20033;-71
2021/04/17 10:03:31;;;;;;;18.63;13.55;;;;;;;9.39;71.62;97064.25;5024608;28;20575;-69
2021/04/17 10:05:58;;;;;;;21.20;14.33;;;;;;;9.27;74.73;97108.63;5039411;28;20224;-70
2021/04/17 10:08:35;;;;;;;17.92;13.98;;;;;;;9.56;73.69;97102.56;5024868;28;20571;-70
2021/04/17 10:11:03;;;;;;;20.58;13.63;;;;;;;9.08;76.48;97101.09;5024537;28;20048;-72
2021/04/17 10:13:45;;;;;;;20.75;14.45;;;;;;;9.40;74.66;97054.00;5024796;28;20040;-73
2021/04/17 10:16:12;;;;;;;20.15;14.18;;;;;;;9.92;72.49;97088.31;5039193;28;20029;-72
2021/04/17 10:18:41;;;;;;;19.70;13.55;;;;;;;9.69;73.81;97087.41;5024512;28;20036;-73
2021/04/17 10:21:07;;;;;;;18.45;12.88;;;;;;;10.03;74.14;97081.03;5024049;28;20471;-73
2021/04/17 10:23:34;;;;;;;34.60;25.15;;;;;;;10.61;71.71;97076.16;5024400;28;20072;-72
2021/04/17 10:26:08;;;;;;;18.58;14.25;;;;;;;10.47;69.83;97046.28;5023978;28;20275;-74
2021/04/17 10:28:35;;;;;;;17.45;12.40;;;;;;;10.86;68.22;97073.84;5039963;28;20046;-70
2021/04/17 10:31:23;;;;;;;19.25;12.60;;;;;;;11.26;67.06;97066.53;5023810;28;20041;-73
2021/04/17 10:33:48;;;;;;;38.78;26.55;;;;;;;11.09;66.53;96994.19;5021836;28;20037;-74
2021/04/17 10:36:17;;;;;;;19.15;12.07;;;;;;;11.79;65.25;97061.75;5023590;28;20527;-71
2021/04/17 10:38:42;;;;;;;14.65;10.45;;;;;;;12.16;62.79;97059.78;5024214;28;20709;-69
2021/04/17 10:41:08;;;;;;;16.20;11.88;;;;;;;12.15;62.32;97058.97;5021911;28;20681;-71
2021/04/17 10:43:34;;;;;;;13.63;10.57;;;;;;;11.24;65.69;97062.56;5023441;28;20088;-71
2021/04/17 10:46:02;;;;;;;12.05;10.13;;;;;;;11.31;65.18;97062.63;5038624;28;20493;-71
2021/04/17 10:48:43;;;;;;;17.05;11.27;;;;;;;11.59;64.11;97046.38;5024442;28;20040;-71
2021/04/17 10:51:11;;;;;;;19.92;14.40;;;;;;;10.89;63.60;96873.56;5002187;28;20472;-71
2021/04/17 10:53:42;;;;;;;15.82;11.50;;;;;;;11.17;65.65;97052.16;5004255;28;20033;-72
2021/04/17 10:56:22;;;;;;;16.85;11.45;;;;;;;11.49;64.29;97011.00;5003937;28;20036;-71
2021/04/17 10:59:08;;;;;;;17.90;12.27;;;;;;;11.96;64.03;97038.94;5004273;28;20044;-71
2021/04/17 11:01:37;;;;;;;26.70;14.57;;;;;;;12.05;63.32;97047.75;5003596;28;20096;-72
2021/04/17 11:04:04;;;;;;;14.90;10.15;;;;;;;11.16;63.00;96972.13;5002776;28;20042;-68
2021/04/17 11:06:33;;;;;;;12.80;9.65;;;;;;;11.27;62.32;96954.44;5003987;28;20080;-71
2021/04/17 11:09:08;;;;;;;14.13;9.95;;;;;;;12.02;61.68;97042.97;5004054;28;20122;-71
2021/04/17 11:11:34;;;;;;;12.98;9.27;;;;;;;11.02;64.69;97027.38;5003736;28;20582;-69
2021/04/17 11:14:01;;;;;;;16.05;12.30;;;;;;;10.96;66.00;97039.94;5003969;28;20034;-70
2021/04/17 11:16:46;;;;;;;13.05;10.02;;;;;;;11.32;64.13;97025.41;5001829;28;20420;-71
2021/04/17 11:19:28;;;;;;;12.40;10.20;;;;;;;11.19;66.23;97037.91;5004316;28;20567;-71
2021/04/17 11:22:22;;;;;;;15.13;11.65;;;;;;;11.58;65.06;97030.91;5002255;28;20417;-70
2021/04/17 11:24:56;;;;;;;18.67;10.85;;;;;;;11.86;64.06;97031.28;5003932;28;20520;-71
2021/04/17 11:27:22;;;;;;;16.27;10.07;;;;;;;11.90;64.08;97023.81;5003282;28;20056;-70
2021/04/17 11:29:47;;;;;;;20.65;12.32;;;;;;;11.49;63.61;96941.66;5002451;28;20488;-71
2021/04/17 11:32:13;;;;;;;16.90;11.07;;;;;;;11.55;62.81;96962.31;5003240;28;20037;-71
2021/04/17 11:34:48;;;;;;;15.18;10.15;;;;;;;11.49;64.51;96997.13;5003879;28;20026;-71